Time;durP1;ratioP1;P1;durP2;ratioP2;P2;SDS_P1;SDS_P2;PMS_P1;PMS_P2;Temp;Humidity;BMP_temperature;BMP_pressure;BME280_temperature;BME280_humidity;BME280_pressure;Samples;Min_cycle;Max_cycle;Signal;HPM_P1;HPM_P2
2023/09/03 00:01:13;;;;;;;8.45;6.53;;;;;;;;;;5060898;28;20025;-80
2023/09/03 00:03:39;;;;;;;10.55;7.05;;;;;;;;;;5060924;28;20093;-80
2023/09/03 00:06:05;;;;;;;7.20;6.10;;;;;;;;;;5059974;28;20032;-80
2023/09/03 00:08:32;;;;;;;9.95;6.75;;;;;;;;;;5043153;28;20028;-81
2023/09/03 00:11:01;;;;;;;8.70;6.10;;;;;;;;;;5078242;28;20024;-79
2023/09/03 00:13:28;;;;;;;8.02;6.45;;;;;;;;;;5061085;28;20028;-80
2023/09/03 00:15:55;;;;;;;8.98;6.38;;;;;;;;;;5062024;28;20040;-80
2023/09/03 00:18:21;;;;;;;8.57;6.57;;;;;;;;;;5060967;28;20035;-82
2023/09/03 00:21:02;;;;;;;7.85;6.80;;;;;;;;;;5061529;28;20028;-80
2023/09/03 00:23:32;;;;;;;12.07;6.35;;;;;;;;;;5079982;28;20031;-80
2023/09/03 00:26:02;;;;;;;10.68;7.20;;;;;;;;;;5079885;28;20029;-81
2023/09/03 00:28:33;;;;;;;8.57;6.53;;;;;;;;;;5046103;28;20040;-81
2023/09/03 00:31:02;;;;;;;10.68;6.70;;;;;;;;;;5080598;28;20433;-80
2023/09/03 00:33:29;;;;;;;8.05;6.22;;;;;;;;;;5045645;28;20033;-81
2023/09/03 00:35:55;;;;;;;7.28;6.28;;;;;;;;;;5062384;28;20029;-84
2023/09/03 00:38:21;;;;;;;10.32;6.60;;;;;;;;;;5062419;28;20023;-82
2023/09/03 00:40:47;;;;;;;10.52;6.18;;;;;;;;;;5081078;28;20063;-80
2023/09/03 00:43:12;;;;;;;10.45;6.72;;;;;;;;;;5063092;28;20004;-81
2023/09/03 00:45:43;;;;;;;8.15;6.65;;;;;;;;;;5080254;28;20039;-82
2023/09/03 00:48:11;;;;;;;8.13;6.53;;;;;;;;;;5063054;28;20028;-80
2023/09/03 00:50:39;;;;;;;9.63;6.47;;;;;;;;;;5079865;28;20031;-81
2023/09/03 00:53:09;;;;;;;7.50;6.45;;;;;;;;;;5061868;28;20021;-80
2023/09/03 00:55:36;;;;;;;9.43;6.78;;;;;;;;;;5045982;28;20036;-81
2023/09/03 00:58:06;;;;;;;10.00;6.55;;;;;;;;;;5079904;28;20017;-81
2023/09/03 01:00:33;;;;;;;10.75;7.00;;;;;;;;;;5079623;28;20025;-80
2023/09/03 01:03:02;;;;;;;8.20;6.90;;;;;;;;;;5079095;28;20085;-80
2023/09/03 01:05:29;;;;;;;10.30;7.15;;;;;;;;;;5061754;28;20097;-80
2023/09/03 01:08:00;;;;;;;9.40;6.70;;;;;;;;;;5061163;28;20024;-81
2023/09/03 01:10:41;;;;;;;10.30;7.25;;;;;;;;;;5079776;28;20028;-79
2023/09/03 01:13:15;;;;;;;11.38;7.28;;;;;;;;;;5059640;28;20024;-80
2023/09/03 01:15:47;;;;;;;10.00;7.20;;;;;;;;;;5078281;28;20067;-79
2023/09/03 01:18:22;;;;;;;35.03;9.45;;;;;;;;;;5044717;28;20046;-79
2023/09/03 01:21:00;;;;;;;14.52;7.72;;;;;;;;;;5063929;28;20043;-80
2023/09/03 01:23:31;;;;;;;22.85;8.23;;;;;;;;;;5064055;28;20031;-80
2023/09/03 01:26:04;;;;;;;11.88;7.57;;;;;;;;;;5081639;28;20052;-79
2023/09/03 01:28:44;;;;;;;11.52;7.97;;;;;;;;;;5082729;28;20041;-79
2023/09/03 01:31:28;;;;;;;9.18;6.82;;;;;;;;;;5081741;28;20032;-80
2023/09/03 01:34:02;;;;;;;10.35;6.68;;;;;;;;;;5048495;28;20033;-79
2023/09/03 01:36:33;;;;;;;13.65;7.78;;;;;;;;;;5064526;28;20403;-82
2023/09/03 01:39:06;;;;;;;10.48;7.07;;;;;;;;;;5082162;28;20105;-81
2023/09/03 01:41:35;;;;;;;8.85;6.95;;;;;;;;;;5082322;28;20024;-82
2023/09/03 01:44:05;;;;;;;10.30;7.03;;;;;;;;;;5065080;28;20045;-79
2023/09/03 01:46:41;;;;;;;13.05;7.32;;;;;;;;;;5065210;28;20017;-80
2023/09/03 01:49:27;;;;;;;22.35;10.55;;;;;;;;;;5083459;28;20035;-80
2023/09/03 01:52:05;;;;;;;11.93;7.72;;;;;;;;;;5082434;28;20032;-82
2023/09/03 01:54:40;;;;;;;12.90;7.43;;;;;;;;;;5065323;28;20021;-83
2023/09/03 01:57:13;;;;;;;11.13;7.28;;;;;;;;;;5048650;28;20029;-81
2023/09/03 01:59:47;;;;;;;7.75;6.55;;;;;;;;;;5064839;28;20039;-81
2023/09/03 02:02:14;;;;;;;8.93;6.70;;;;;;;;;;5065581;28;20113;-82
2023/09/03 02:04:40;;;;;;;8.18;6.40;;;;;;;;;;5048563;28;20032;-79
2023/09/03 02:07:06;;;;;;;10.55;7.50;;;;;;;;;;5064906;28;20048;-80
2023/09/03 02:09:33;;;;;;;12.18;7.35;;;;;;;;;;5065994;28;20103;-81
2023/09/03 02:11:59;;;;;;;12.02;7.43;;;;;;;;;;5065185;28;20119;-82
2023/09/03 02:14:26;;;;;;;10.60;7.30;;;;;;;;;;5065142;28;20048;-81
2023/09/03 02:16:53;;;;;;;10.27;7.60;;;;;;;;;;5082830;28;20040;-81
2023/09/03 02:19:22;;;;;;;15.20;7.75;;;;;;;;;;5063485;28;20024;-80
2023/09/03 02:21:48;;;;;;;11.23;6.78;;;;;;;;;;5064194;28;20070;-82
2023/09/03 02:24:14;;;;;;;11.63;6.88;;;;;;;;;;5081545;28;20048;-82
2023/09/03 02:26:44;;;;;;;11.15;7.28;;;;;;;;;;5063887;28;20028;-80
2023/09/03 02:29:12;;;;;;;10.15;7.45;;;;;;;;;;5047180;28;20074;-82
2023/09/03 02:31:40;;;;;;;11.43;7.10;;;;;;;;;;5081431;28;20032;-81
2023/09/03 02:34:09;;;;;;;8.88;6.60;;;;;;;;;;5047093;28;20029;-82
2023/09/03 02:36:38;;;;;;;8.88;6.55;;;;;;;;;;5081754;28;20021;-80
2023/09/03 02:39:05;;;;;;;9.15;6.60;;;;;;;;;;5047089;28;20025;-81
2023/09/03 02:41:32;;;;;;;7.90;6.53;;;;;;;;;;5063500;28;20024;-80
2023/09/03 02:43:58;;;;;;;10.27;7.13;;;;;;;;;;5063633;28;20098;-82
2023/09/03 02:46:25;;;;;;;9.07;6.93;;;;;;;;;;5063631;28;20111;-82
2023/09/03 02:48:51;;;;;;;11.75;7.45;;;;;;;;;;5080854;28;20025;-80
2023/09/03 02:51:21;;;;;;;8.10;6.28;;;;;;;;;;5046950;28;20054;-81
2023/09/03 02:53:51;;;;;;;9.48;7.07;;;;;;;;;;5063504;28;20032;-81
2023/09/03 02:56:16;;;;;;;12.80;7.28;;;;;;;;;;5063815;28;20021;-79
2023/09/03 02:58:46;;;;;;;10.10;6.60;;;;;;;;;;5063130;28;20083;-80
2023/09/03 03:01:15;;;;;;;10.77;6.88;;;;;;;;;;5063701;28;20063;-82
2023/09/03 03:03:41;;;;;;;8.82;6.13;;;;;;;;;;5064300;28;20031;-81
2023/09/03 03:06:08;;;;;;;10.88;6.88;;;;;;;;;;5063098;28;20025;-81
2023/09/03 03:08:34;;;;;;;9.98;7.07;;;;;;;;;;5047140;28;20480;-81
2023/09/03 03:11:07;;;;;;;9.65;7.68;;;;;;;;;;5063816;28;20035;-81
2023/09/03 03:13:34;;;;;;;9.27;7.18;;;;;;;;;;5063492;28;20111;-81
2023/09/03 03:16:11;;;;;;;10.63;7.20;;;;;;;;;;5064041;28;20033;-80
2023/09/03 03:18:40;;;;;;;9.55;7.45;;;;;;;;;;5081479;28;20562;-81
2023/09/03 03:21:08;;;;;;;14.65;8.25;;;;;;;;;;5046868;28;20469;-81
2023/09/03 03:23:35;;;;;;;10.20;7.13;;;;;;;;;;5063478;28;20341;-81
2023/09/03 03:26:02;;;;;;;14.57;8.80;;;;;;;;;;5047416;28;20043;-81
2023/09/03 03:28:33;;;;;;;12.75;8.63;;;;;;;;;;5063947;28;20028;-81
2023/09/03 03:31:14;;;;;;;15.48;8.05;;;;;;;;;;5063559;28;20442;-81
2023/09/03 03:33:41;;;;;;;11.60;8.32;;;;;;;;;;5062778;28;20091;-80
2023/09/03 03:36:13;;;;;;;14.05;9.15;;;;;;;;;;5062662;28;20052;-80
2023/09/03 03:38:40;;;;;;;13.20;8.68;;;;;;;;;;5063560;28;20024;-80
2023/09/03 03:41:14;;;;;;;13.00;8.43;;;;;;;;;;5062358;28;20028;-82
2023/09/03 03:43:46;;;;;;;13.10;10.80;;;;;;;;;;5080541;28;20039;-81
2023/09/03 03:46:16;;;;;;;13.07;9.10;;;;;;;;;;5080959;28;20427;-80
2023/09/03 03:48:43;;;;;;;13.75;8.55;;;;;;;;;;5030465;28;20029;-80
2023/09/03 03:51:09;;;;;;;11.77;9.27;;;;;;;;;;5062758;28;20048;-82
2023/09/03 03:53:35;;;;;;;14.40;9.15;;;;;;;;;;5081999;28;20028;-81
2023/09/03 03:56:05;;;;;;;18.90;9.50;;;;;;;;;;5047873;28;20055;-82
2023/09/03 03:58:35;;;;;;;12.57;8.95;;;;;;;;;;5063496;28;20050;-82
2023/09/03 04:01:09;;;;;;;11.50;8.25;;;;;;;;;;5046071;28;20571;-80
2023/09/03 04:03:35;;;;;;;14.05;10.00;;;;;;;;;;5061924;28;20056;-80
2023/09/03 04:06:07;;;;;;;12.68;8.80;;;;;;;;;;5080453;28;20058;-81
2023/09/03 04:08:38;;;;;;;13.32;9.10;;;;;;;;;;5051017;28;20182;-81
2023/09/03 04:11:08;;;;;;;12.25;9.10;;;;;;;;;;5060707;28;20025;-83
2023/09/03 04:13:38;;;;;;;13.30;9.13;;;;;;;;;;5043259;28;20431;-82
2023/09/03 04:16:15;;;;;;;14.15;9.32;;;;;;;;;;5026686;28;20266;-81
2023/09/03 04:18:45;;;;;;;13.32;9.02;;;;;;;;;;5060617;28;20374;-80
2023/09/03 04:21:13;;;;;;;16.97;9.87;;;;;;;;;;5043263;28;20029;-81
2023/09/03 04:23:44;;;;;;;13.75;9.35;;;;;;;;;;5025802;28;20035;-81
2023/09/03 04:26:09;;;;;;;12.98;9.23;;;;;;;;;;5042780;28;20041;-80
2023/09/03 04:28:35;;;;;;;14.27;10.48;;;;;;;;;;5060809;28;20033;-79
2023/09/03 04:31:08;;;;;;;12.18;8.52;;;;;;;;;;5059630;28;20088;-80
2023/09/03 04:33:38;;;;;;;17.48;9.80;;;;;;;;;;5042538;28;20037;-80
2023/09/03 04:36:05;;;;;;;15.48;11.07;;;;;;;;;;5060152;28;20025;-82
2023/09/03 04:38:33;;;;;;;10.77;8.50;;;;;;;;;;5058665;28;20033;-81
2023/09/03 04:41:04;;;;;;;12.73;9.48;;;;;;;;;;5041995;28;20507;-82
2023/09/03 04:43:34;;;;;;;17.63;10.03;;;;;;;;;;5025757;28;20063;-81
2023/09/03 04:46:00;;;;;;;12.20;8.68;;;;;;;;;;5041688;28;20028;-81
2023/09/03 04:48:26;;;;;;;13.80;9.45;;;;;;;;;;5041960;28;20393;-82
2023/09/03 04:50:52;;;;;;;13.65;9.57;;;;;;;;;;5042495;28;20025;-81
2023/09/03 04:53:20;;;;;;;12.35;8.57;;;;;;;;;;5062653;28;20025;-81
2023/09/03 04:55:49;;;;;;;13.05;9.77;;;;;;;;;;5064298;28;20519;-81
2023/09/03 04:58:15;;;;;;;12.40;8.88;;;;;;;;;;5046106;28;20421;-80
2023/09/03 05:00:41;;;;;;;13.45;8.45;;;;;;;;;;5046738;28;20031;-81
2023/09/03 05:03:07;;;;;;;13.20;8.57;;;;;;;;;;5063915;28;20099;-81
2023/09/03 05:06:00;;;;;;;12.88;8.82;;;;;;;;;;5030302;28;20051;-80
2023/09/03 05:08:26;;;;;;;14.73;8.68;;;;;;;;;;5061337;28;20045;-81
2023/09/03 05:10:52;;;;;;;12.98;9.10;;;;;;;;;;5064219;28;20025;-79
2023/09/03 05:13:19;;;;;;;14.20;8.30;;;;;;;;;;5046008;28;20033;-80
2023/09/03 05:15:49;;;;;;;12.45;8.10;;;;;;;;;;5045965;28;20502;-80
2023/09/03 05:18:15;;;;;;;12.00;8.65;;;;;;;;;;5064564;28;20017;-81
2023/09/03 05:20:40;;;;;;;13.27;9.20;;;;;;;;;;5045050;28;20107;-80
2023/09/03 05:23:09;;;;;;;11.60;8.02;;;;;;;;;;5044736;28;20079;-82
2023/09/03 05:25:34;;;;;;;9.52;7.38;;;;;;;;;;5045008;28;20072;-82
2023/09/03 05:28:01;;;;;;;10.77;8.02;;;;;;;;;;5045851;28;20036;-82
2023/09/03 05:30:28;;;;;;;10.98;8.38;;;;;;;;;;5062947;28;20363;-83
2023/09/03 05:32:56;;;;;;;10.68;8.43;;;;;;;;;;5063507;28;20080;-79
2023/09/03 05:35:22;;;;;;;14.40;8.90;;;;;;;;;;5044358;28;20054;-81
2023/09/03 05:37:49;;;;;;;11.85;8.57;;;;;;;;;;5027696;28;20385;-81
2023/09/03 05:40:16;;;;;;;9.20;7.30;;;;;;;;;;5063195;28;20460;-80
2023/09/03 05:42:43;;;;;;;11.75;7.93;;;;;;;;;;5062846;28;20028;-79
2023/09/03 05:45:12;;;;;;;10.80;8.10;;;;;;;;;;5045180;28;20032;-80
2023/09/03 05:47:38;;;;;;;11.63;8.00;;;;;;;;;;5044528;28;20389;-80
2023/09/03 05:50:05;;;;;;;13.52;8.13;;;;;;;;;;5044244;28;20025;-82
2023/09/03 05:52:31;;;;;;;10.18;7.50;;;;;;;;;;5044934;28;20017;-82
2023/09/03 05:54:59;;;;;;;11.60;8.10;;;;;;;;;;5045026;28;20031;-81
2023/09/03 05:57:25;;;;;;;13.10;8.15;;;;;;;;;;5045543;28;20086;-81
2023/09/03 05:59:51;;;;;;;11.00;8.43;;;;;;;;;;5059731;28;20033;-81
2023/09/03 06:02:19;;;;;;;12.02;7.57;;;;;;;;;;5027166;28;20041;-80
2023/09/03 06:04:45;;;;;;;16.73;10.43;;;;;;;;;;5059144;28;20041;-81
2023/09/03 06:07:10;;;;;;;12.13;9.40;;;;;;;;;;5059391;28;20067;-80
2023/09/03 06:09:37;;;;;;;11.82;7.78;;;;;;;;;;5059837;28;20087;-80
2023/09/03 06:12:04;;;;;;;12.48;7.85;;;;;;;;;;5042492;28;20527;-82
2023/09/03 06:14:34;;;;;;;16.42;8.18;;;;;;;;;;5059852;28;20032;-81
2023/09/03 06:16:59;;;;;;;11.55;8.18;;;;;;;;;;5043121;28;20032;-82
2023/09/03 06:19:26;;;;;;;12.20;7.35;;;;;;;;;;5059795;28;20025;-81
2023/09/03 06:21:55;;;;;;;11.52;8.10;;;;;;;;;;5042893;28;20067;-81
2023/09/03 06:24:21;;;;;;;12.88;8.13;;;;;;;;;;5059075;28;20413;-80
2023/09/03 06:26:48;;;;;;;11.73;7.88;;;;;;;;;;5059114;28;20036;-82
2023/09/03 06:29:14;;;;;;;8.45;6.93;;;;;;;;;;5042243;28;20025;-80
2023/09/03 06:31:39;;;;;;;12.88;7.60;;;;;;;;;;5059851;28;20088;-82
2023/09/03 06:34:05;;;;;;;11.05;7.55;;;;;;;;;;5058940;28;20033;-81
2023/09/03 06:36:35;;;;;;;8.60;6.90;;;;;;;;;;5047514;28;20043;-80
2023/09/03 06:39:01;;;;;;;12.13;8.48;;;;;;;;;;5072387;28;20104;-83
2023/09/03 06:41:26;;;;;;;11.30;7.30;;;;;;;;;;5061083;28;20056;-81
2023/09/03 06:43:55;;;;;;;9.80;8.23;;;;;;;;;;5044436;28;20021;-80
2023/09/03 06:46:23;;;;;;;11.30;8.40;;;;;;;;;;5044323;28;20033;-79
2023/09/03 06:48:48;;;;;;;11.02;7.65;;;;;;;;;;5061533;28;20058;-81
2023/09/03 06:51:14;;;;;;;11.27;7.80;;;;;;;;;;5043022;28;20047;-80
2023/09/03 06:54:06;;;;;;;8.90;7.32;;;;;;;;;;5044106;28;20410;-82
2023/09/03 06:56:32;;;;;;;13.35;8.20;;;;;;;;;;5043402;28;20029;-81
2023/09/03 06:59:00;;;;;;;11.82;7.88;;;;;;;;;;5027659;28;20057;-81
2023/09/03 07:01:28;;;;;;;10.00;7.93;;;;;;;;;;5044010;28;20086;-80
2023/09/03 07:03:53;;;;;;;11.23;7.97;;;;;;;;;;5060040;28;20021;-80
2023/09/03 07:06:20;;;;;;;9.98;7.97;;;;;;;;;;5057054;28;20033;-80
2023/09/03 07:08:45;;;;;;;16.33;10.27;;;;;;;;;;5054885;28;20434;-79
2023/09/03 07:11:11;;;;;;;13.35;11.05;;;;;;;;;;5054512;28;20025;-80
2023/09/03 07:13:36;;;;;;;18.00;11.90;;;;;;;;;;5054311;28;20036;-79
2023/09/03 07:16:05;;;;;;;12.68;9.68;;;;;;;;;;5035563;28;20029;-80
2023/09/03 07:18:30;;;;;;;10.60;7.97;;;;;;;;;;5036290;28;20036;-80
2023/09/03 07:21:04;;;;;;;15.85;7.82;;;;;;;;;;5035676;28;20033;-80
2023/09/03 07:23:30;;;;;;;11.70;8.15;;;;;;;;;;5053066;28;20123;-80
2023/09/03 07:26:01;;;;;;;10.10;7.80;;;;;;;;;;5035906;28;20129;-81
2023/09/03 07:28:28;;;;;;;13.05;8.52;;;;;;;;;;5036273;28;20103;-81
2023/09/03 07:30:53;;;;;;;10.05;7.75;;;;;;;;;;5035362;28;20036;-80
2023/09/03 07:33:18;;;;;;;12.27;8.52;;;;;;;;;;5035530;28;20704;-80
2023/09/03 07:35:44;;;;;;;11.63;9.02;;;;;;;;;;5053878;28;20100;-79
2023/09/03 07:38:09;;;;;;;10.43;8.18;;;;;;;;;;5053506;28;20033;-80
2023/09/03 07:40:38;;;;;;;19.52;13.48;;;;;;;;;;5035548;28;20025;-80
2023/09/03 07:43:04;;;;;;;17.80;12.27;;;;;;;;;;5053274;28;20381;-81
2023/09/03 07:45:30;;;;;;;26.00;13.27;;;;;;;;;;5035300;28;20028;-82
2023/09/03 07:47:55;;;;;;;13.95;9.98;;;;;;;;;;5053354;28;20062;-80
2023/09/03 07:50:21;;;;;;;14.10;9.73;;;;;;;;;;5053896;28;20025;-81
2023/09/03 07:52:47;;;;;;;11.60;8.70;;;;;;;;;;5054363;28;20477;-80
2023/09/03 07:55:12;;;;;;;13.07;10.05;;;;;;;;;;5035792;28;20329;-80
2023/09/03 07:57:38;;;;;;;8.43;6.78;;;;;;;;;;5035552;28;20020;-80
2023/09/03 08:00:04;;;;;;;10.18;5.72;;;;;;;;;;5053339;28;20029;-81
2023/09/03 08:02:30;;;;;;;14.85;10.07;;;;;;;;;;5053561;28;20029;-80
2023/09/03 08:04:55;;;;;;;8.98;7.20;;;;;;;;;;5035496;28;20096;-81
2023/09/03 08:07:22;;;;;;;9.40;7.45;;;;;;;;;;5053734;28;20431;-79
2023/09/03 08:09:47;;;;;;;11.13;8.15;;;;;;;;;;5034718;28;20036;-81
2023/09/03 08:12:13;;;;;;;14.73;10.60;;;;;;;;;;5035408;28;20036;-80
2023/09/03 08:14:39;;;;;;;10.32;8.07;;;;;;;;;;5035330;28;20510;-80
2023/09/03 08:17:06;;;;;;;11.70;7.80;;;;;;;;;;5036040;28;20017;-83
2023/09/03 08:19:31;;;;;;;9.63;6.95;;;;;;;;;;5035957;28;20040;-80
2023/09/03 08:21:57;;;;;;;7.78;5.85;;;;;;;;;;5035487;28;20040;-81
2023/09/03 08:24:22;;;;;;;11.25;5.95;;;;;;;;;;5034883;28;20432;-81
2023/09/03 08:26:48;;;;;;;11.00;5.55;;;;;;;;;;5035031;28;20083;-81
2023/09/03 08:29:14;;;;;;;6.28;4.90;;;;;;;;;;5039304;28;20032;-81
2023/09/03 08:31:39;;;;;;;7.05;5.18;;;;;;;;;;5039988;28;20025;-80
2023/09/03 08:34:05;;;;;;;21.40;13.27;;;;;;;;;;5039746;28;20408;-82
2023/09/03 08:36:30;;;;;;;13.23;8.15;;;;;;;;;;5058012;28;20029;-80
2023/09/03 08:38:56;;;;;;;9.52;6.22;;;;;;;;;;5058816;28;20025;-79
2023/09/03 08:41:25;;;;;;;6.78;5.22;;;;;;;;;;5039315;28;20037;-80
2023/09/03 08:43:55;;;;;;;5.97;4.47;;;;;;;;;;5039548;28;20526;-80
2023/09/03 08:46:27;;;;;;;4.72;4.18;;;;;;;;;;5057982;28;20029;-80
2023/09/03 08:48:54;;;;;;;5.97;3.90;;;;;;;;;;5039041;28;20025;-81
2023/09/03 08:51:20;;;;;;;4.40;3.92;;;;;;;;;;5039181;28;20048;-80
2023/09/03 08:53:49;;;;;;;4.15;3.67;;;;;;;;;;5039001;28;20052;-80
2023/09/03 08:56:14;;;;;;;7.47;4.10;;;;;;;;;;5038653;28;20031;-82
2023/09/03 08:58:40;;;;;;;4.78;3.80;;;;;;;;;;5056523;28;20084;-81
2023/09/03 09:01:06;;;;;;;4.90;3.70;;;;;;;;;;5039330;28;20048;-81
2023/09/03 09:03:34;;;;;;;4.43;3.80;;;;;;;;;;5057099;28;20024;-81
2023/09/03 09:06:00;;;;;;;7.80;5.57;;;;;;;;;;5056176;28;20376;-80
2023/09/03 09:08:26;;;;;;;5.43;4.25;;;;;;;;;;5058530;28;20021;-79
2023/09/03 09:10:54;;;;;;;7.53;4.22;;;;;;;;;;5022424;28;20506;-81
2023/09/03 09:13:23;;;;;;;3.53;3.15;;;;;;;;;;5056984;28;20033;-79
2023/09/03 09:15:48;;;;;;;4.35;3.20;;;;;;;;;;5057182;28;20071;-80
2023/09/03 09:18:14;;;;;;;3.25;2.95;;;;;;;;;;5038754;28;20084;-81
2023/09/03 09:20:41;;;;;;;4.10;3.35;;;;;;;;;;5040055;28;20555;-80
2023/09/03 09:23:08;;;;;;;4.75;3.10;;;;;;;;;;5040150;28;20104;-82
2023/09/03 09:25:35;;;;;;;3.28;2.70;;;;;;;;;;5039435;28;20505;-82
2023/09/03 09:28:22;;;;;;;3.72;2.78;;;;;;;;;;5038578;28;20473;-81
2023/09/03 09:30:53;;;;;;;4.70;2.58;;;;;;;;;;5039557;28;20033;-81
2023/09/03 09:33:19;;;;;;;4.20;2.97;;;;;;;;;;5040023;28;20036;-83
2023/09/03 09:35:44;;;;;;;2.65;2.45;;;;;;;;;;5038643;28;20025;-81
2023/09/03 09:38:10;;;;;;;4.65;2.67;;;;;;;;;;5039373;28;20033;-81
2023/09/03 09:40:36;;;;;;;4.03;3.58;;;;;;;;;;5038277;28;20021;-80
2023/09/03 09:43:06;;;;;;;3.20;2.90;;;;;;;;;;5038966;28;20029;-81
2023/09/03 09:45:32;;;;;;;3.92;3.20;;;;;;;;;;5056625;28;20294;-81
2023/09/03 09:48:09;;;;;;;4.15;2.80;;;;;;;;;;5039059;28;20474;-79
2023/09/03 09:50:36;;;;;;;4.45;4.03;;;;;;;;;;5038942;28;20028;-78
2023/09/03 09:53:03;;;;;;;4.00;3.15;;;;;;;;;;5038413;28;20143;-80
2023/09/03 09:55:32;;;;;;;3.30;2.95;;;;;;;;;;5039203;28;20410;-81
2023/09/03 09:57:59;;;;;;;5.43;3.35;;;;;;;;;;5056250;28;20078;-80
2023/09/03 10:00:34;;;;;;;5.28;3.80;;;;;;;;;;5037842;28;20035;-80
2023/09/03 10:03:00;;;;;;;3.58;3.03;;;;;;;;;;5038330;28;20025;-80
2023/09/03 10:05:25;;;;;;;6.38;3.50;;;;;;;;;;5037490;28;20369;-81
2023/09/03 10:07:52;;;;;;;7.55;3.25;;;;;;;;;;5038265;28;20029;-81
2023/09/03 10:10:19;;;;;;;3.65;3.03;;;;;;;;;;5055208;28;20081;-81
2023/09/03 10:12:44;;;;;;;4.28;3.53;;;;;;;;;;5055098;28;20078;-80
2023/09/03 10:15:13;;;;;;;5.28;4.18;;;;;;;;;;5037622;28;20125;-81
2023/09/03 10:17:40;;;;;;;7.70;4.18;;;;;;;;;;5037364;28;20013;-80
2023/09/03 10:20:17;;;;;;;6.38;3.38;;;;;;;;;;5037629;28;20024;-81
2023/09/03 10:22:45;;;;;;;4.05;3.45;;;;;;;;;;5055320;28;20029;-81
2023/09/03 10:25:16;;;;;;;5.28;3.50;;;;;;;;;;5037742;28;20052;-80
2023/09/03 10:27:47;;;;;;;4.50;3.75;;;;;;;;;;5036772;28;20582;-81
2023/09/03 10:30:19;;;;;;;3.97;3.58;;;;;;;;;;5055334;28;20056;-80
2023/09/03 10:32:45;;;;;;;8.43;3.58;;;;;;;;;;5037390;28;20032;-81
2023/09/03 10:35:12;;;;;;;5.50;3.90;;;;;;;;;;5037281;28;20066;-80
2023/09/03 10:37:39;;;;;;;9.30;3.58;;;;;;;;;;5037127;28;20025;-80
2023/09/03 10:40:24;;;;;;;3.78;2.58;;;;;;;;;;5037065;28;20094;-79
2023/09/03 10:43:13;;;;;;;3.25;2.72;;;;;;;;;;5055084;28;20541;-81
2023/09/03 10:45:39;;;;;;;3.78;2.80;;;;;;;;;;5054790;28;20032;-80
2023/09/03 10:48:06;;;;;;;6.93;2.17;;;;;;;;;;5020385;28;20037;-81
2023/09/03 10:50:50;;;;;;;3.05;2.75;;;;;;;;;;5054647;28;20025;-80
2023/09/03 10:53:37;;;;;;;3.38;3.08;;;;;;;;;;5036219;28;20036;-81
2023/09/03 10:56:16;;;;;;;3.05;2.40;;;;;;;;;;5055059;28;20021;-81
2023/09/03 10:58:53;;;;;;;3.35;2.70;;;;;;;;;;5036411;28;20036;-81
2023/09/03 11:01:31;;;;;;;3.35;3.05;;;;;;;;;;5037415;28;20041;-81
2023/09/03 11:04:03;;;;;;;3.78;3.15;;;;;;;;;;5054945;28;20087;-81
2023/09/03 11:06:33;;;;;;;3.28;3.00;;;;;;;;;;5054537;28;20104;-80
2023/09/03 11:08:58;;;;;;;3.97;2.90;;;;;;;;;;5054793;28;20056;-81
2023/09/03 11:11:33;;;;;;;6.22;3.20;;;;;;;;;;5054010;28;20035;-80
2023/09/03 11:13:59;;;;;;;6.05;3.25;;;;;;;;;;5036601;28;20049;-79
2023/09/03 11:16:41;;;;;;;3.70;3.13;;;;;;;;;;5054137;28;20095;-81
2023/09/03 11:19:07;;;;;;;4.68;4.15;;;;;;;;;;5036333;28;20559;-80
2023/09/03 11:21:34;;;;;;;5.97;4.00;;;;;;;;;;5035764;28;20035;-82
2023/09/03 11:24:05;;;;;;;3.92;3.42;;;;;;;;;;5053257;28;20024;-81
2023/09/03 11:26:32;;;;;;;4.80;3.72;;;;;;;;;;5036487;28;20128;-81
2023/09/03 11:29:02;;;;;;;4.00;3.60;;;;;;;;;;5037235;28;20021;-81
2023/09/03 11:31:28;;;;;;;6.97;3.65;;;;;;;;;;5037138;28;20032;-80
2023/09/03 11:33:57;;;;;;;3.45;3.13;;;;;;;;;;5036806;28;20029;-81
2023/09/03 11:36:25;;;;;;;3.92;3.47;;;;;;;;;;5053951;28;20039;-80
2023/09/03 11:38:52;;;;;;;5.15;3.45;;;;;;;;;;5054679;28;20017;-82
2023/09/03 11:41:20;;;;;;;4.53;3.33;;;;;;;;;;5054091;28;20033;-82
2023/09/03 11:43:46;;;;;;;4.88;3.50;;;;;;;;;;5037163;28;20025;-80
2023/09/03 11:46:16;;;;;;;4.13;3.67;;;;;;;;;;5036482;28;20032;-79
2023/09/03 11:48:50;;;;;;;3.93;3.63;;;;;;;;;;5054209;28;20107;-80
2023/09/03 11:51:25;;;;;;;7.10;4.15;;;;;;;;;;5036223;28;20360;-84
2023/09/03 11:53:51;;;;;;;4.05;3.55;;;;;;;;;;5054408;28;20496;-80
2023/09/03 11:56:18;;;;;;;5.10;3.78;;;;;;;;;;5036465;28;20036;-82
2023/09/03 11:58:48;;;;;;;9.65;4.38;;;;;;;;;;5036741;28;20025;-80
2023/09/03 12:01:14;;;;;;;4.13;3.67;;;;;;;;;;5035916;28;20476;-81
2023/09/03 12:03:41;;;;;;;4.45;3.60;;;;;;;;;;5035774;28;20176;-80
2023/09/03 12:06:06;;;;;;;4.18;3.78;;;;;;;;;;5053802;28;20036;-80
2023/09/03 12:08:32;;;;;;;8.70;4.20;;;;;;;;;;5035426;28;20025;-80
2023/09/03 12:10:57;;;;;;;5.25;4.20;;;;;;;;;;5035869;28;20036;-82
2023/09/03 12:13:29;;;;;;;3.60;3.25;;;;;;;;;;5054028;28;20033;-80
2023/09/03 12:16:06;;;;;;;3.63;3.17;;;;;;;;;;5036956;28;20028;-81
2023/09/03 12:18:32;;;;;;;3.85;3.55;;;;;;;;;;5036478;28;20021;-80
2023/09/03 12:20:58;;;;;;;4.35;3.35;;;;;;;;;;5036223;28;20039;-80
2023/09/03 12:23:24;;;;;;;5.32;3.63;;;;;;;;;;5054983;28;20520;-81
2023/09/03 12:25:50;;;;;;;4.00;3.05;;;;;;;;;;5036224;28;20053;-80
2023/09/03 12:28:16;;;;;;;4.13;3.10;;;;;;;;;;5036342;28;20029;-82
2023/09/03 12:30:56;;;;;;;4.70;3.53;;;;;;;;;;5047223;28;20032;-81
2023/09/03 12:33:43;;;;;;;6.63;3.78;;;;;;;;;;5073916;28;20029;-81
2023/09/03 12:36:19;;;;;;;4.03;3.17;;;;;;;;;;5074160;28;20024;-81
2023/09/03 12:38:58;;;;;;;4.00;2.97;;;;;;;;;;5058139;28;20496;-81
2023/09/03 12:41:28;;;;;;;4.45;2.80;;;;;;;;;;5056421;28;20507;-81
2023/09/03 12:44:06;;;;;;;6.95;3.55;;;;;;;;;;5055988;28;20024;-81
2023/09/03 12:46:33;;;;;;;3.38;3.03;;;;;;;;;;5055287;28;20475;-78
2023/09/03 12:48:58;;;;;;;3.38;3.08;;;;;;;;;;5073878;28;20043;-80
2023/09/03 12:51:24;;;;;;;6.05;3.25;;;;;;;;;;5055108;28;20028;-80
2023/09/03 12:53:49;;;;;;;3.67;2.90;;;;;;;;;;5054866;28;20033;-80
2023/09/03 12:56:15;;;;;;;3.55;3.10;;;;;;;;;;5054746;28;20059;-81
2023/09/03 12:58:42;;;;;;;4.53;3.20;;;;;;;;;;5055350;28;20032;-79
2023/09/03 13:01:08;;;;;;;5.25;3.67;;;;;;;;;;5055567;28;20028;-80
2023/09/03 13:03:34;;;;;;;4.22;3.03;;;;;;;;;;5072825;28;20042;-80
2023/09/03 13:06:00;;;;;;;4.28;3.30;;;;;;;;;;5041178;28;20058;-81
2023/09/03 13:08:25;;;;;;;4.43;3.17;;;;;;;;;;5072874;28;20028;-80
2023/09/03 13:10:51;;;;;;;4.65;4.00;;;;;;;;;;5054986;28;20025;-81
2023/09/03 13:13:18;;;;;;;3.95;3.10;;;;;;;;;;5056223;28;20028;-82
2023/09/03 13:15:45;;;;;;;11.57;6.97;;;;;;;;;;5059833;28;20031;-80
2023/09/03 13:18:11;;;;;;;5.25;3.35;;;;;;;;;;5059521;28;20515;-80
2023/09/03 13:20:36;;;;;;;4.43;3.33;;;;;;;;;;5059038;28;20024;-81
2023/09/03 13:23:02;;;;;;;4.30;3.17;;;;;;;;;;5059829;28;20024;-80
2023/09/03 13:25:28;;;;;;;5.85;3.13;;;;;;;;;;5057949;28;20091;-81
2023/09/03 13:27:53;;;;;;;3.25;2.95;;;;;;;;;;5058179;28;20541;-80
2023/09/03 13:30:19;;;;;;;4.65;3.42;;;;;;;;;;5058441;28;20024;-81
2023/09/03 13:32:44;;;;;;;3.45;3.15;;;;;;;;;;5076416;28;20028;-82
2023/09/03 13:35:10;;;;;;;3.95;3.28;;;;;;;;;;5076686;28;20480;-80
2023/09/03 13:37:36;;;;;;;7.32;3.53;;;;;;;;;;5058649;28;20020;-81
2023/09/03 13:40:04;;;;;;;3.13;2.83;;;;;;;;;;5077884;28;20029;-81
2023/09/03 13:42:30;;;;;;;5.07;3.08;;;;;;;;;;5076981;28;20035;-81
2023/09/03 13:44:57;;;;;;;2.97;2.67;;;;;;;;;;5061002;28;20459;-81
2023/09/03 13:47:22;;;;;;;3.92;3.20;;;;;;;;;;5060776;28;20112;-81
2023/09/03 13:49:52;;;;;;;3.67;3.13;;;;;;;;;;5078278;28;20052;-81
2023/09/03 13:52:19;;;;;;;3.22;2.92;;;;;;;;;;5060235;28;20025;-80
2023/09/03 13:54:49;;;;;;;6.13;3.25;;;;;;;;;;5059670;28;20533;-80
2023/09/03 13:57:14;;;;;;;3.43;3.10;;;;;;;;;;5059122;28;20116;-80
2023/09/03 13:59:41;;;;;;;4.63;2.78;;;;;;;;;;5077861;28;20305;-81
2023/09/03 14:02:07;;;;;;;3.42;2.50;;;;;;;;;;5058284;28;20024;-80
2023/09/03 14:04:32;;;;;;;4.63;3.15;;;;;;;;;;5057482;28;20438;-80
2023/09/03 14:06:59;;;;;;;4.13;3.00;;;;;;;;;;5057458;28;20190;-80
2023/09/03 14:09:24;;;;;;;3.65;2.88;;;;;;;;;;5057722;28;20074;-81
2023/09/03 14:11:50;;;;;;;3.67;2.60;;;;;;;;;;5057715;28;20036;-81
2023/09/03 14:14:15;;;;;;;3.65;2.83;;;;;;;;;;5075804;28;20100;-81
2023/09/03 14:16:41;;;;;;;3.72;2.90;;;;;;;;;;5057214;28;20032;-80
2023/09/03 14:19:06;;;;;;;2.72;2.45;;;;;;;;;;5057700;28;20088;-79
2023/09/03 14:21:32;;;;;;;4.07;2.78;;;;;;;;;;5076044;28;20333;-81
2023/09/03 14:23:58;;;;;;;3.05;2.75;;;;;;;;;;5057022;28;20028;-79
2023/09/03 14:26:24;;;;;;;4.07;3.28;;;;;;;;;;5055970;28;20024;-81
2023/09/03 14:28:51;;;;;;;4.40;3.33;;;;;;;;;;5056667;28;20544;-80
2023/09/03 14:31:16;;;;;;;4.82;3.10;;;;;;;;;;5056872;28;20460;-81
2023/09/03 14:33:42;;;;;;;5.13;3.10;;;;;;;;;;5056622;28;20044;-80
2023/09/03 14:36:07;;;;;;;3.15;2.55;;;;;;;;;;5074959;28;20325;-81
2023/09/03 14:38:33;;;;;;;4.68;3.20;;;;;;;;;;5055790;28;20056;-81
2023/09/03 14:40:58;;;;;;;4.97;2.97;;;;;;;;;;5057337;28;20081;-81
2023/09/03 14:43:24;;;;;;;4.13;3.15;;;;;;;;;;5075216;28;20530;-80